sensor_id;sensor_type;location;lat;lon;timestamp;pressure;altitude;pressure_sealevel;temperature
82638;BMP280;72318;36.628;-121.932;2023-09-07T00:00:54;101316.63;;;24.09
82638;BMP280;72318;36.628;-121.932;2023-09-07T00:03:20;101318.34;;;23.81
82638;BMP280;72318;36.628;-121.932;2023-09-07T00:05:48;101318.97;;;23.12
82638;BMP280;72318;36.628;-121.932;2023-09-07T00:08:14;101322.22;;;22.94
82638;BMP280;72318;36.628;-121.932;2023-09-07T00:10:41;101321.94;;;23.30
82638;BMP280;72318;36.628;-121.932;2023-09-07T00:13:07;101312.78;;;22.83
82638;BMP280;72318;36.628;-121.932;2023-09-07T00:15:37;101314.09;;;22.78
82638;BMP280;72318;36.628;-121.932;2023-09-07T00:18:04;101315.41;;;22.86
82638;BMP280;72318;36.628;-121.932;2023-09-07T00:20:31;101311.84;;;22.48
82638;BMP280;72318;36.628;-121.932;2023-09-07T00:23:00;101324.56;;;21.93
82638;BMP280;72318;36.628;-121.932;2023-09-07T00:25:27;101315.25;;;22.52
82638;BMP280;72318;36.628;-121.932;2023-09-07T00:27:55;101319.44;;;22.40
82638;BMP280;72318;36.628;-121.932;2023-09-07T00:30:22;101316.34;;;22.54
82638;BMP280;72318;36.628;-121.932;2023-09-07T00:32:48;101318.38;;;22.21
82638;BMP280;72318;36.628;-121.932;2023-09-07T00:35:15;101321.16;;;22.05
82638;BMP280;72318;36.628;-121.932;2023-09-07T00:37:41;101326.63;;;21.89
82638;BMP280;72318;36.628;-121.932;2023-09-07T00:40:08;101313.13;;;21.82
82638;BMP280;72318;36.628;-121.932;2023-09-07T00:42:36;101317.91;;;21.78
82638;BMP280;72318;36.628;-121.932;2023-09-07T00:45:02;101317.53;;;22.24
82638;BMP280;72318;36.628;-121.932;2023-09-07T00:47:29;101310.34;;;21.85
82638;BMP280;72318;36.628;-121.932;2023-09-07T00:49:55;101310.16;;;21.60
82638;BMP280;72318;36.628;-121.932;2023-09-07T00:52:24;101301.59;;;22.07
82638;BMP280;72318;36.628;-121.932;2023-09-07T00:54:50;101315.84;;;21.98
82638;BMP280;72318;36.628;-121.932;2023-09-07T00:57:16;101312.88;;;20.88
82638;BMP280;72318;36.628;-121.932;2023-09-07T00:59:43;101303.63;;;21.38
82638;BMP280;72318;36.628;-121.932;2023-09-07T01:02:09;101305.97;;;21.03
82638;BMP280;72318;36.628;-121.932;2023-09-07T01:04:36;101314.94;;;20.84
82638;BMP280;72318;36.628;-121.932;2023-09-07T01:07:15;101312.38;;;21.49
82638;BMP280;72318;36.628;-121.932;2023-09-07T01:09:45;101302.59;;;21.15
82638;BMP280;72318;36.628;-121.932;2023-09-07T01:12:16;101322.72;;;21.02
82638;BMP280;72318;36.628;-121.932;2023-09-07T01:14:42;101315.41;;;20.99
82638;BMP280;72318;36.628;-121.932;2023-09-07T01:17:09;101313.97;;;21.10
82638;BMP280;72318;36.628;-121.932;2023-09-07T01:19:37;101321.16;;;21.01
82638;BMP280;72318;36.628;-121.932;2023-09-07T01:22:05;101313.53;;;21.32
82638;BMP280;72318;36.628;-121.932;2023-09-07T01:24:33;101313.28;;;21.06
82638;BMP280;72318;36.628;-121.932;2023-09-07T01:27:01;101310.38;;;21.33
82638;BMP280;72318;36.628;-121.932;2023-09-07T01:29:29;101311.16;;;20.35
82638;BMP280;72318;36.628;-121.932;2023-09-07T01:31:56;101314.69;;;20.08
82638;BMP280;72318;36.628;-121.932;2023-09-07T01:34:24;101309.19;;;20.58
82638;BMP280;72318;36.628;-121.932;2023-09-07T01:36:50;101318.06;;;20.63
82638;BMP280;72318;36.628;-121.932;2023-09-07T01:39:16;101305.19;;;20.43
82638;BMP280;72318;36.628;-121.932;2023-09-07T01:41:43;101311.69;;;20.69
82638;BMP280;72318;36.628;-121.932;2023-09-07T01:44:09;101311.16;;;20.35
82638;BMP280;72318;36.628;-121.932;2023-09-07T01:46:36;101303.03;;;20.54
82638;BMP280;72318;36.628;-121.932;2023-09-07T01:49:02;101306.59;;;20.28
82638;BMP280;72318;36.628;-121.932;2023-09-07T01:51:31;101298.72;;;20.34
82638;BMP280;72318;36.628;-121.932;2023-09-07T01:53:57;101305.22;;;20.20
82638;BMP280;72318;36.628;-121.932;2023-09-07T01:56:24;101299.78;;;20.16
82638;BMP280;72318;36.628;-121.932;2023-09-07T01:58:50;101299.22;;;20.05
82638;BMP280;72318;36.628;-121.932;2023-09-07T02:01:24;101304.19;;;19.87
82638;BMP280;72318;36.628;-121.932;2023-09-07T02:03:51;101297.66;;;19.81
82638;BMP280;72318;36.628;-121.932;2023-09-07T02:06:17;101297.41;;;19.72
82638;BMP280;72318;36.628;-121.932;2023-09-07T02:08:44;101295.31;;;19.83
82638;BMP280;72318;36.628;-121.932;2023-09-07T02:11:10;101301.56;;;19.53
82638;BMP280;72318;36.628;-121.932;2023-09-07T02:13:36;101309.72;;;19.53
82638;BMP280;72318;36.628;-121.932;2023-09-07T02:16:06;101304.31;;;19.22
82638;BMP280;72318;36.628;-121.932;2023-09-07T02:18:32;101303.03;;;19.31
82638;BMP280;72318;36.628;-121.932;2023-09-07T02:21:03;101301.59;;;19.22
82638;BMP280;72318;36.628;-121.932;2023-09-07T02:23:29;101301.81;;;19.05
82638;BMP280;72318;36.628;-121.932;2023-09-07T02:25:55;101299.06;;;19.08
82638;BMP280;72318;36.628;-121.932;2023-09-07T02:28:24;101297.56;;;19.04
82638;BMP280;72318;36.628;-121.932;2023-09-07T02:30:51;101302.31;;;18.96
82638;BMP280;72318;36.628;-121.932;2023-09-07T02:33:17;101296.88;;;18.92
82638;BMP280;72318;36.628;-121.932;2023-09-07T02:35:44;101295.13;;;19.13
82638;BMP280;72318;36.628;-121.932;2023-09-07T02:38:10;101291.22;;;19.14
82638;BMP280;72318;36.628;-121.932;2023-09-07T02:40:41;101287.06;;;19.02
82638;BMP280;72318;36.628;-121.932;2023-09-07T02:43:08;101287.53;;;18.97
82638;BMP280;72318;36.628;-121.932;2023-09-07T02:45:34;101284.81;;;18.97
82638;BMP280;72318;36.628;-121.932;2023-09-07T02:48:01;101281.22;;;18.73
82638;BMP280;72318;36.628;-121.932;2023-09-07T02:50:31;101284.81;;;18.63
82638;BMP280;72318;36.628;-121.932;2023-09-07T02:52:58;101295.72;;;18.56
82638;BMP280;72318;36.628;-121.932;2023-09-07T02:55:26;101298.44;;;18.59
82638;BMP280;72318;36.628;-121.932;2023-09-07T02:57:52;101299.59;;;18.58
82638;BMP280;72318;36.628;-121.932;2023-09-07T03:00:23;101297.03;;;18.82
82638;BMP280;72318;36.628;-121.932;2023-09-07T03:02:50;101300.31;;;19.00
82638;BMP280;72318;36.628;-121.932;2023-09-07T03:05:16;101299.31;;;18.87
82638;BMP280;72318;36.628;-121.932;2023-09-07T03:07:45;101310.50;;;18.51
82638;BMP280;72318;36.628;-121.932;2023-09-07T03:10:12;101309.38;;;18.49
82638;BMP280;72318;36.628;-121.932;2023-09-07T03:12:39;101316.78;;;18.41
82638;BMP280;72318;36.628;-121.932;2023-09-07T03:15:05;101320.34;;;18.38
82638;BMP280;72318;36.628;-121.932;2023-09-07T03:17:34;101321.56;;;18.30
82638;BMP280;72318;36.628;-121.932;2023-09-07T03:20:01;101319.63;;;18.27
82638;BMP280;72318;36.628;-121.932;2023-09-07T03:22:41;101332.72;;;18.39
82638;BMP280;72318;36.628;-121.932;2023-09-07T03:25:08;101330.03;;;17.80
82638;BMP280;72318;36.628;-121.932;2023-09-07T03:27:36;101331.91;;;18.42
82638;BMP280;72318;36.628;-121.932;2023-09-07T03:30:03;101327.03;;;18.26
82638;BMP280;72318;36.628;-121.932;2023-09-07T03:32:32;101343.84;;;18.00
82638;BMP280;72318;36.628;-121.932;2023-09-07T03:34:59;101346.41;;;17.62
82638;BMP280;72318;36.628;-121.932;2023-09-07T03:37:27;101337.56;;;17.48
82638;BMP280;72318;36.628;-121.932;2023-09-07T03:39:55;101342.94;;;17.55
82638;BMP280;72318;36.628;-121.932;2023-09-07T03:42:21;101341.31;;;17.72
82638;BMP280;72318;36.628;-121.932;2023-09-07T03:44:47;101351.88;;;17.52
82638;BMP280;72318;36.628;-121.932;2023-09-07T03:47:14;101338.59;;;17.75
82638;BMP280;72318;36.628;-121.932;2023-09-07T03:49:41;101346.63;;;17.89
82638;BMP280;72318;36.628;-121.932;2023-09-07T03:52:08;101341.03;;;17.52
82638;BMP280;72318;36.628;-121.932;2023-09-07T03:54:35;101347.69;;;17.37
82638;BMP280;72318;36.628;-121.932;2023-09-07T03:57:04;101350.72;;;17.46
82638;BMP280;72318;36.628;-121.932;2023-09-07T03:59:30;101350.69;;;17.53
82638;BMP280;72318;36.628;-121.932;2023-09-07T04:01:59;101360.78;;;17.49
82638;BMP280;72318;36.628;-121.932;2023-09-07T04:04:26;101359.25;;;17.48
82638;BMP280;72318;36.628;-121.932;2023-09-07T04:06:52;101362.44;;;17.18
82638;BMP280;72318;36.628;-121.932;2023-09-07T04:09:18;101359.72;;;17.18
82638;BMP280;72318;36.628;-121.932;2023-09-07T04:11:44;101361.88;;;17.62
82638;BMP280;72318;36.628;-121.932;2023-09-07T04:14:10;101364.00;;;17.19
82638;BMP280;72318;36.628;-121.932;2023-09-07T04:16:37;101373.31;;;16.82
82638;BMP280;72318;36.628;-121.932;2023-09-07T04:19:03;101371.75;;;17.13
82638;BMP280;72318;36.628;-121.932;2023-09-07T04:21:30;101365.47;;;17.41
82638;BMP280;72318;36.628;-121.932;2023-09-07T04:23:56;101368.66;;;16.90
82638;BMP280;72318;36.628;-121.932;2023-09-07T04:26:22;101365.97;;;16.83
82638;BMP280;72318;36.628;-121.932;2023-09-07T04:28:50;101359.00;;;16.75
82638;BMP280;72318;36.628;-121.932;2023-09-07T04:31:16;101368.28;;;16.91
82638;BMP280;72318;36.628;-121.932;2023-09-07T04:33:43;101357.44;;;17.02
82638;BMP280;72318;36.628;-121.932;2023-09-07T04:36:13;101350.09;;;16.88
82638;BMP280;72318;36.628;-121.932;2023-09-07T04:38:40;101357.44;;;16.95
82638;BMP280;72318;36.628;-121.932;2023-09-07T04:41:12;101360.91;;;16.99
82638;BMP280;72318;36.628;-121.932;2023-09-07T04:43:39;101357.78;;;17.29
82638;BMP280;72318;36.628;-121.932;2023-09-07T04:46:13;101355.84;;;17.22
82638;BMP280;72318;36.628;-121.932;2023-09-07T04:48:40;101368.63;;;17.11
82638;BMP280;72318;36.628;-121.932;2023-09-07T04:51:08;101358.56;;;17.15
82638;BMP280;72318;36.628;-121.932;2023-09-07T04:53:36;101361.69;;;17.14
82638;BMP280;72318;36.628;-121.932;2023-09-07T04:56:22;101359.69;;;17.21
82638;BMP280;72318;36.628;-121.932;2023-09-07T04:58:48;101359.31;;;17.16
82638;BMP280;72318;36.628;-121.932;2023-09-07T05:01:15;101363.22;;;17.00
82638;BMP280;72318;36.628;-121.932;2023-09-07T05:03:41;101353.22;;;16.58
82638;BMP280;72318;36.628;-121.932;2023-09-07T05:06:07;101359.78;;;16.86
82638;BMP280;72318;36.628;-121.932;2023-09-07T05:08:34;101358.22;;;16.85
82638;BMP280;72318;36.628;-121.932;2023-09-07T05:11:02;101356.66;;;17.01
82638;BMP280;72318;36.628;-121.932;2023-09-07T05:13:31;101357.84;;;17.04
82638;BMP280;72318;36.628;-121.932;2023-09-07T05:15:59;101351.63;;;16.96
82638;BMP280;72318;36.628;-121.932;2023-09-07T05:18:26;101359.75;;;17.00
82638;BMP280;72318;36.628;-121.932;2023-09-07T05:20:53;101358.59;;;17.08
82638;BMP280;72318;36.628;-121.932;2023-09-07T05:23:20;101365.19;;;16.86
82638;BMP280;72318;36.628;-121.932;2023-09-07T05:25:48;101353.56;;;16.96
82638;BMP280;72318;36.628;-121.932;2023-09-07T05:28:17;101352.41;;;16.97
82638;BMP280;72318;36.628;-121.932;2023-09-07T05:30:44;101350.09;;;16.88
82638;BMP280;72318;36.628;-121.932;2023-09-07T05:33:11;101352.41;;;17.00
82638;BMP280;72318;36.628;-121.932;2023-09-07T05:35:38;101344.31;;;16.86
82638;BMP280;72318;36.628;-121.932;2023-09-07T05:38:05;101345.09;;;16.73
82638;BMP280;72318;36.628;-121.932;2023-09-07T05:40:42;101340.41;;;16.84
82638;BMP280;72318;36.628;-121.932;2023-09-07T05:43:09;101348.19;;;16.78
82638;BMP280;72318;36.628;-121.932;2023-09-07T05:45:37;101333.09;;;16.81
82638;BMP280;72318;36.628;-121.932;2023-09-07T05:48:04;101335.44;;;16.68
82638;BMP280;72318;36.628;-121.932;2023-09-07T05:50:33;101342.00;;;16.81
82638;BMP280;72318;36.628;-121.932;2023-09-07T05:52:59;101332.38;;;16.62
82638;BMP280;72318;36.628;-121.932;2023-09-07T05:55:25;101335.84;;;16.63
82638;BMP280;72318;36.628;-121.932;2023-09-07T05:57:54;101336.22;;;16.61
82638;BMP280;72318;36.628;-121.932;2023-09-07T06:00:21;101331.97;;;16.46
82638;BMP280;72318;36.628;-121.932;2023-09-07T06:02:47;101327.72;;;16.63
82638;BMP280;72318;36.628;-121.932;2023-09-07T06:05:13;101318.81;;;16.41
82638;BMP280;72318;36.628;-121.932;2023-09-07T06:07:40;101324.22;;;16.59
82638;BMP280;72318;36.628;-121.932;2023-09-07T06:10:06;101328.09;;;16.58
82638;BMP280;72318;36.628;-121.932;2023-09-07T06:12:33;101320.38;;;16.46
82638;BMP280;72318;36.628;-121.932;2023-09-07T06:15:03;101322.69;;;16.58
82638;BMP280;72318;36.628;-121.932;2023-09-07T06:17:32;101326.19;;;16.62
82638;BMP280;72318;36.628;-121.932;2023-09-07T06:19:58;101328.09;;;16.51
82638;BMP280;72318;36.628;-121.932;2023-09-07T06:22:25;101320.34;;;16.63
82638;BMP280;72318;36.628;-121.932;2023-09-07T06:24:51;101316.53;;;16.57
82638;BMP280;72318;36.628;-121.932;2023-09-07T06:27:17;101316.88;;;16.45
82638;BMP280;72318;36.628;-121.932;2023-09-07T06:29:43;101314.53;;;16.33
82638;BMP280;72318;36.628;-121.932;2023-09-07T06:32:09;101316.88;;;16.42
82638;BMP280;72318;36.628;-121.932;2023-09-07T06:34:36;101309.53;;;16.60
82638;BMP280;72318;36.628;-121.932;2023-09-07T06:37:02;101311.47;;;16.56
82638;BMP280;72318;36.628;-121.932;2023-09-07T06:39:28;101311.09;;;16.54
82638;BMP280;72318;36.628;-121.932;2023-09-07T06:41:54;101304.13;;;16.56
82638;BMP280;72318;36.628;-121.932;2023-09-07T06:44:21;101315.34;;;16.55
82638;BMP280;72318;36.628;-121.932;2023-09-07T06:46:47;101312.25;;;16.56
82638;BMP280;72318;36.628;-121.932;2023-09-07T06:49:15;101321.13;;;16.50
82638;BMP280;72318;36.628;-121.932;2023-09-07T06:51:41;101317.66;;;16.60
82638;BMP280;72318;36.628;-121.932;2023-09-07T06:54:07;101318.03;;;16.65
82638;BMP280;72318;36.628;-121.932;2023-09-07T06:56:33;101317.25;;;16.65
82638;BMP280;72318;36.628;-121.932;2023-09-07T06:59:00;101309.16;;;16.61
82638;BMP280;72318;36.628;-121.932;2023-09-07T07:01:27;101324.22;;;16.55
82638;BMP280;72318;36.628;-121.932;2023-09-07T07:03:53;101320.75;;;16.44
82638;BMP280;72318;36.628;-121.932;2023-09-07T07:06:19;101315.34;;;16.55
82638;BMP280;72318;36.628;-121.932;2023-09-07T07:08:46;101317.28;;;16.36
82638;BMP280;72318;36.628;-121.932;2023-09-07T07:11:12;101317.25;;;16.68
82638;BMP280;72318;36.628;-121.932;2023-09-07T07:13:41;101320.75;;;16.30
82638;BMP280;72318;36.628;-121.932;2023-09-07T07:16:07;101314.22;;;16.52
82638;BMP280;72318;36.628;-121.932;2023-09-07T07:18:33;101325.38;;;16.72
82638;BMP280;72318;36.628;-121.932;2023-09-07T07:21:00;101320.38;;;16.38
82638;BMP280;72318;36.628;-121.932;2023-09-07T07:23:26;101326.16;;;16.58
82638;BMP280;72318;36.628;-121.932;2023-09-07T07:25:52;101321.16;;;16.35
82638;BMP280;72318;36.628;-121.932;2023-09-07T07:28:18;101314.94;;;16.53
82638;BMP280;72318;36.628;-121.932;2023-09-07T07:30:44;101319.19;;;16.32
82638;BMP280;72318;36.628;-121.932;2023-09-07T07:33:11;101313.03;;;16.25
82638;BMP280;72318;36.628;-121.932;2023-09-07T07:35:40;101319.59;;;16.42
82638;BMP280;72318;36.628;-121.932;2023-09-07T07:38:09;101316.88;;;16.45
82638;BMP280;72318;36.628;-121.932;2023-09-07T07:40:35;101316.50;;;16.54
82638;BMP280;72318;36.628;-121.932;2023-09-07T07:43:01;101312.59;;;16.16
82638;BMP280;72318;36.628;-121.932;2023-09-07T07:45:28;101318.03;;;16.37
82638;BMP280;72318;36.628;-121.932;2023-09-07T07:47:54;101311.47;;;16.34
82638;BMP280;72318;36.628;-121.932;2023-09-07T07:50:21;101316.13;;;16.45
82638;BMP280;72318;36.628;-121.932;2023-09-07T07:52:47;101323.44;;;16.33
82638;BMP280;72318;36.628;-121.932;2023-09-07T07:55:13;101323.47;;;16.48
82638;BMP280;72318;36.628;-121.932;2023-09-07T07:57:39;101316.50;;;16.54
82638;BMP280;72318;36.628;-121.932;2023-09-07T08:00:06;101321.91;;;16.40
82638;BMP280;72318;36.628;-121.932;2023-09-07T08:02:32;101313.38;;;16.23
82638;BMP280;72318;36.628;-121.932;2023-09-07T08:04:59;101321.53;;;16.41
82638;BMP280;72318;36.628;-121.932;2023-09-07T08:07:25;101321.91;;;16.29
82638;BMP280;72318;36.628;-121.932;2023-09-07T08:09:52;101318.41;;;16.11
82638;BMP280;72318;36.628;-121.932;2023-09-07T08:12:18;101319.16;;;16.08
82638;BMP280;72318;36.628;-121.932;2023-09-07T08:14:45;101317.28;;;16.26
82638;BMP280;72318;36.628;-121.932;2023-09-07T08:17:12;101319.19;;;16.22
82638;BMP280;72318;36.628;-121.932;2023-09-07T08:19:38;101317.25;;;16.22
82638;BMP280;72318;36.628;-121.932;2023-09-07T08:22:05;101324.63;;;16.25
82638;BMP280;72318;36.628;-121.932;2023-09-07T08:24:32;101316.50;;;16.25
82638;BMP280;72318;36.628;-121.932;2023-09-07T08:26:58;101317.63;;;16.42
82638;BMP280;72318;36.628;-121.932;2023-09-07T08:29:26;101316.91;;;16.31
82638;BMP280;72318;36.628;-121.932;2023-09-07T08:31:53;101311.84;;;16.12
82638;BMP280;72318;36.628;-121.932;2023-09-07T08:34:20;101316.13;;;16.45
82638;BMP280;72318;36.628;-121.932;2023-09-07T08:36:48;101316.47;;;16.32
82638;BMP280;72318;36.628;-121.932;2023-09-07T08:39:20;101314.19;;;16.42
82638;BMP280;72318;36.628;-121.932;2023-09-07T08:41:46;101313.81;;;16.40
82638;BMP280;72318;36.628;-121.932;2023-09-07T08:44:16;101311.09;;;16.40
82638;BMP280;72318;36.628;-121.932;2023-09-07T08:46:43;101307.56;;;16.75
82638;BMP280;72318;36.628;-121.932;2023-09-07T08:49:13;101313.78;;;16.82
82638;BMP280;72318;36.628;-121.932;2023-09-07T08:51:39;101307.53;;;16.99
82638;BMP280;72318;36.628;-121.932;2023-09-07T08:54:07;101309.91;;;16.87
82638;BMP280;72318;36.628;-121.932;2023-09-07T08:56:34;101308.00;;;16.62
82638;BMP280;72318;36.628;-121.932;2023-09-07T08:59:00;101308.72;;;16.84
82638;BMP280;72318;36.628;-121.932;2023-09-07T09:01:27;101307.59;;;16.82
82638;BMP280;72318;36.628;-121.932;2023-09-07T09:03:58;101303.31;;;16.74
82638;BMP280;72318;36.628;-121.932;2023-09-07T09:06:24;101310.28;;;16.82
82638;BMP280;72318;36.628;-121.932;2023-09-07T09:08:55;101315.34;;;16.76
82638;BMP280;72318;36.628;-121.932;2023-09-07T09:11:22;101312.25;;;16.56
82638;BMP280;72318;36.628;-121.932;2023-09-07T09:13:50;101309.91;;;16.87
82638;BMP280;72318;36.628;-121.932;2023-09-07T09:16:17;101307.59;;;16.71
82638;BMP280;72318;36.628;-121.932;2023-09-07T09:21:19;101306.41;;;16.86
82638;BMP280;72318;36.628;-121.932;2023-09-07T09:23:48;101312.56;;;16.97
82638;BMP280;72318;36.628;-121.932;2023-09-07T09:26:15;101311.03;;;16.89
82638;BMP280;72318;36.628;-121.932;2023-09-07T09:28:45;101309.47;;;16.99
82638;BMP280;72318;36.628;-121.932;2023-09-07T09:31:12;101315.66;;;16.99
82638;BMP280;72318;36.628;-121.932;2023-09-07T09:33:41;101310.31;;;16.50
82638;BMP280;72318;36.628;-121.932;2023-09-07T09:36:08;101311.41;;;16.84
82638;BMP280;72318;36.628;-121.932;2023-09-07T09:38:35;101310.72;;;16.62
82638;BMP280;72318;36.628;-121.932;2023-09-07T09:41:03;101316.84;;;16.91
82638;BMP280;72318;36.628;-121.932;2023-09-07T09:43:29;101312.19;;;16.99
82638;BMP280;72318;36.628;-121.932;2023-09-07T09:45:56;101317.22;;;16.90
82638;BMP280;72318;36.628;-121.932;2023-09-07T09:48:24;101311.41;;;16.98
82638;BMP280;72318;36.628;-121.932;2023-09-07T09:50:50;101312.91;;;17.10
82638;BMP280;72318;36.628;-121.932;2023-09-07T09:53:17;101306.41;;;16.83
82638;BMP280;72318;36.628;-121.932;2023-09-07T09:55:49;101307.19;;;16.90
82638;BMP280;72318;36.628;-121.932;2023-09-07T09:58:16;101304.44;;;17.08
82638;BMP280;72318;36.628;-121.932;2023-09-07T10:00:48;101304.03;;;17.06
82638;BMP280;72318;36.628;-121.932;2023-09-07T10:03:25;101310.13;;;17.39
82638;BMP280;72318;36.628;-121.932;2023-09-07T10:05:52;101305.50;;;17.25
82638;BMP280;72318;36.628;-121.932;2023-09-07T10:08:20;101306.75;;;17.06
82638;BMP280;72318;36.628;-121.932;2023-09-07T10:10:52;101301.34;;;17.02
82638;BMP280;72318;36.628;-121.932;2023-09-07T10:13:30;101297.47;;;17.07
82638;BMP280;72318;36.628;-121.932;2023-09-07T10:16:06;101300.50;;;17.20
82638;BMP280;72318;36.628;-121.932;2023-09-07T10:18:34;101302.81;;;17.28
82638;BMP280;72318;36.628;-121.932;2023-09-07T10:21:01;101295.28;;;17.61
82638;BMP280;72318;36.628;-121.932;2023-09-07T10:23:54;101289.56;;;17.45
82638;BMP280;72318;36.628;-121.932;2023-09-07T10:26:21;101294.69;;;17.21
82638;BMP280;72318;36.628;-121.932;2023-09-07T10:28:47;101301.63;;;17.26
82638;BMP280;72318;36.628;-121.932;2023-09-07T10:31:25;101302.09;;;17.10
82638;BMP280;72318;36.628;-121.932;2023-09-07T10:33:52;101305.50;;;17.32
82638;BMP280;72318;36.628;-121.932;2023-09-07T10:36:25;101306.25;;;18.06
82638;BMP280;72318;36.628;-121.932;2023-09-07T10:38:53;101298.16;;;17.32
82638;BMP280;72318;36.628;-121.932;2023-09-07T10:41:21;101300.16;;;17.11
82638;BMP280;72318;36.628;-121.932;2023-09-07T10:44:05;101293.84;;;17.46
82638;BMP280;72318;36.628;-121.932;2023-09-07T10:46:32;101299.75;;;17.19
82638;BMP280;72318;36.628;-121.932;2023-09-07T10:48:58;101281.06;;;17.43
82638;BMP280;72318;36.628;-121.932;2023-09-07T10:51:25;101291.59;;;17.26
82638;BMP280;72318;36.628;-121.932;2023-09-07T10:53:51;101285.09;;;17.13
82638;BMP280;72318;36.628;-121.932;2023-09-07T10:56:17;101292.06;;;16.96
82638;BMP280;72318;36.628;-121.932;2023-09-07T10:58:43;101290.91;;;16.97
82638;BMP280;72318;36.628;-121.932;2023-09-07T11:01:10;101289.53;;;17.55
82638;BMP280;72318;36.628;-121.932;2023-09-07T11:03:37;101290.84;;;17.22
82638;BMP280;72318;36.628;-121.932;2023-09-07T11:06:10;101297.81;;;17.16
82638;BMP280;72318;36.628;-121.932;2023-09-07T11:08:40;101297.06;;;17.19
82638;BMP280;72318;36.628;-121.932;2023-09-07T11:11:08;101289.22;;;17.39
82638;BMP280;72318;36.628;-121.932;2023-09-07T11:13:35;101291.41;;;17.65
82638;BMP280;72318;36.628;-121.932;2023-09-07T11:16:08;101291.59;;;17.26
82638;BMP280;72318;36.628;-121.932;2023-09-07T11:18:35;101289.28;;;17.21
82638;BMP280;72318;36.628;-121.932;2023-09-07T11:21:04;101295.16;;;17.02
82638;BMP280;72318;36.628;-121.932;2023-09-07T11:23:31;101287.41;;;17.08
82638;BMP280;72318;36.628;-121.932;2023-09-07T11:26:08;101280.81;;;17.12
82638;BMP280;72318;36.628;-121.932;2023-09-07T11:28:34;101281.91;;;17.32
82638;BMP280;72318;36.628;-121.932;2023-09-07T11:31:00;101286.59;;;17.14
82638;BMP280;72318;36.628;-121.932;2023-09-07T11:33:31;101288.03;;;17.44
82638;BMP280;72318;36.628;-121.932;2023-09-07T11:35:58;101297.44;;;17.18
82638;BMP280;72318;36.628;-121.932;2023-09-07T11:38:29;101293.91;;;17.31
82638;BMP280;72318;36.628;-121.932;2023-09-07T11:40:59;101288.50;;;17.28
82638;BMP280;72318;36.628;-121.932;2023-09-07T11:43:25;101286.13;;;17.37
82638;BMP280;72318;36.628;-121.932;2023-09-07T11:45:51;101290.69;;;17.54
82638;BMP280;72318;36.628;-121.932;2023-09-07T11:48:18;101288.22;;;16.90
82638;BMP280;72318;36.628;-121.932;2023-09-07T11:50:44;101288.34;;;17.60
82638;BMP280;72318;36.628;-121.932;2023-09-07T11:53:10;101287.03;;;17.13
82638;BMP280;72318;36.628;-121.932;2023-09-07T11:55:36;101286.19;;;17.26
82638;BMP280;72318;36.628;-121.932;2023-09-07T11:58:06;101287.25;;;17.40
82638;BMP280;72318;36.628;-121.932;2023-09-07T12:00:32;101291.66;;;17.01
82638;BMP280;72318;36.628;-121.932;2023-09-07T12:02:59;101288.16;;;17.12
82638;BMP280;72318;36.628;-121.932;2023-09-07T12:05:25;101294.00;;;16.89
82638;BMP280;72318;36.628;-121.932;2023-09-07T12:07:51;101296.69;;;17.17
82638;BMP280;72318;36.628;-121.932;2023-09-07T12:10:18;101294.56;;;17.53
82638;BMP280;72318;36.628;-121.932;2023-09-07T12:12:44;101299.75;;;17.19
82638;BMP280;72318;36.628;-121.932;2023-09-07T12:15:11;101295.94;;;17.02
82638;BMP280;72318;36.628;-121.932;2023-09-07T12:17:37;101298.63;;;17.02
82638;BMP280;72318;36.628;-121.932;2023-09-07T12:20:07;101304.81;;;17.07
82638;BMP280;72318;36.628;-121.932;2023-09-07T12:22:39;101296.31;;;16.97
82638;BMP280;72318;36.628;-121.932;2023-09-07T12:25:08;101302.94;;;16.89
82638;BMP280;72318;36.628;-121.932;2023-09-07T12:27:36;101302.16;;;16.85
82638;BMP280;72318;36.628;-121.932;2023-09-07T12:30:03;101307.19;;;16.90
82638;BMP280;72318;36.628;-121.932;2023-09-07T12:32:34;101308.72;;;16.95
82638;BMP280;72318;36.628;-121.932;2023-09-07T12:35:00;101305.88;;;17.30
82638;BMP280;72318;36.628;-121.932;2023-09-07T12:37:29;101305.56;;;17.18
82638;BMP280;72318;36.628;-121.932;2023-09-07T12:39:55;101299.81;;;16.94
82638;BMP280;72318;36.628;-121.932;2023-09-07T12:42:21;101306.00;;;16.91
82638;BMP280;72318;36.628;-121.932;2023-09-07T12:44:48;101306.75;;;17.02
82638;BMP280;72318;36.628;-121.932;2023-09-07T12:47:14;101305.78;;;17.55
82638;BMP280;72318;36.628;-121.932;2023-09-07T12:49:40;101304.81;;;16.89
82638;BMP280;72318;36.628;-121.932;2023-09-07T12:52:07;101308.75;;;16.77
82638;BMP280;72318;36.628;-121.932;2023-09-07T12:54:36;101310.28;;;16.75
82638;BMP280;72318;36.628;-121.932;2023-09-07T12:57:02;101310.31;;;16.78
82638;BMP280;72318;36.628;-121.932;2023-09-07T12:59:29;101305.63;;;16.93
82638;BMP280;72318;36.628;-121.932;2023-09-07T13:01:55;101319.94;;;16.93
82638;BMP280;72318;36.628;-121.932;2023-09-07T13:04:22;101318.38;;;16.92
82638;BMP280;72318;36.628;-121.932;2023-09-07T13:06:48;101312.59;;;16.69
82638;BMP280;72318;36.628;-121.932;2023-09-07T13:09:14;101311.03;;;16.93
82638;BMP280;72318;36.628;-121.932;2023-09-07T13:11:40;101324.59;;;16.82
82638;BMP280;72318;36.628;-121.932;2023-09-07T13:14:07;101330.03;;;16.54
82638;BMP280;72318;36.628;-121.932;2023-09-07T13:16:36;101325.75;;;16.85
82638;BMP280;72318;36.628;-121.932;2023-09-07T13:19:02;101336.44;;;17.38
82638;BMP280;72318;36.628;-121.932;2023-09-07T13:21:28;101341.28;;;17.79
82638;BMP280;72318;36.628;-121.932;2023-09-07T13:23:55;101342.91;;;17.62
82638;BMP280;72318;36.628;-121.932;2023-09-07T13:26:21;101334.25;;;16.90